NCAR-RAP Real-Time Weather Data

Output produced by METARs form (17 December 2018  06:52 UTC)
found at http://weather.rap.ucar.edu/surface/
 
RJEB 170600Z 24006KT 9999 -SHSN FEW020 BKN030 02/M01 Q1003
RJEB 170500Z 29006KT 260V330 9999 -SHRASN FEW007 SCT015 BKN040 02/M00 Q1003
RJEB 170400Z 26003KT 8000 -SHRASN FEW006 SCT030 BKN050 02/00 Q1003
RJEB 170300Z 32001KT 7000 -SHRASN FEW005 BKN030 01/00 Q1003
RJEB 170200Z 30002KT 6000 -SHSNRA FEW005 BKN020 01/00 Q1004
RJEB 170100Z 30003KT 8000 -SHSNRA FEW006 SCT015 BKN040 01/00 Q1005
RJEB 170027Z 29005KT 7000 -SHSNRA FEW005 SCT010 BKN015 01/00 Q1005 RMK 1ST005 4ST010 6ST015 A2969
RJEB 170000Z 31004KT 8000 -SHSNRA FEW007 SCT009 BKN010 01/00 Q1005
RJEB 160700Z 15006KT 9999 FEW040 BKN/// 03/M04 Q1011
RJEB 160600Z 14003KT 100V210 9999 FEW030 BKN/// 04/M05 Q1012
RJEB 160500Z 23005KT 9999 FEW040 BKN/// 05/M05 Q1012
RJEB 160400Z 24009KT 200V260 9999 FEW030 BKN045 05/M04 Q1013
RJEB 160300Z 23007KT 180V270 9999 FEW030 05/M04 Q1014
RJEB 160200Z VRB02KT 9999 FEW030 SCT050 BKN060 04/M05 Q1015
RJEB 160100Z VRB02KT 9999 FEW030 01/M03 Q1016
RJEB 160000Z VRB01KT 9999 FEW035 BKN045 M01/M05 Q1016
RJEB 150700Z 25006KT 9999 FEW030 BKN040 M01/M08 Q1020
RJEB 150600Z VRB01KT 9999 FEW030 BKN040 M01/M08 Q1020
RJEB 150500Z 32003KT 9999 FEW020 BKN040 M03/M09 Q1019
RJEB 150400Z 28005KT 9999 -SHSN FEW015 BKN040 M02/M08 Q1019
RJEB 150300Z 31007KT 9999 -SHSN FEW015 BKN030 M02/M07 Q1020
RJEB 150200Z 29004KT 9999 -SHSN FEW020 BKN030 M02/M07 Q1021
RJEB 150100Z 25006KT 9999 FEW020 M02/M08 Q1021
RJEB 150000Z 24005KT 9999 FEW030 SCT045 M04/M08 Q1021